Nagaleader — VRDD5 — position and weather

sailwx.info

Track history (hours):
 
Tides and Currents Weather Stations Pressure Air Temp Water Temp Dewpoint Dewpoint Depression Visibility Wind Speed Wind Dir Waves Ship Positions

Nagaleader

Last reported at 2018-Feb-17 16:36 UTC. Time now 2018-Feb-19 22:02 UTC.
Position N 23°45' E 119°23'.

Length 113 m; draft 5.4 m.

Type: Cargo ship. MMSI: 477926700.

Date/timePositionNaut miles runAvg speedWind from/ knotsBaromVisibWave heightAir tempDewpointWater temp
2018-Feb-17 16:36N 23°45' E 119°23'1 9.2
2018-Feb-17 16:27N 23°43' E 119°24'6911.2
2018-Feb-17 10:17N 22°43' E 120°00'310.4
2018-Feb-17 09:59N 22°41' E 120°03'510.1
2018-Feb-17 09:30N 22°37' E 120°06'4 9.1
2018-Feb-17 09:00N 22°34' E 120°09'510.6
2018-Feb-17 08:30N 22°33' E 120°15'4 9.1
2018-Feb-17 08:00N 22°33' E 120°20'0 0.2
2018-Feb-17 07:30N 22°33' E 120°20'0 0.0
2018-Feb-17 07:00N 22°33' E 120°20'0 0.0
2018-Feb-17 06:30N 22°33' E 120°20'0 0.0
2018-Feb-17 06:00N 22°33' E 120°20'0 0.0
2018-Feb-17 05:30N 22°33' E 120°20'0 0.0
2018-Feb-17 05:00N 22°33' E 120°20'0 0.0
2018-Feb-17 04:30N 22°33' E 120°20'0 0.0
2018-Feb-17 04:00N 22°33' E 120°20'0 0.0
2018-Feb-17 03:30N 22°33' E 120°20'0 0.0
2018-Feb-17 03:00N 22°33' E 120°20'0 0.0
2018-Feb-17 02:30N 22°33' E 120°20'0 0.0
2018-Feb-17 02:00N 22°33' E 120°20'0 0.0
2018-Feb-17 01:27N 22°33' E 120°20'0 0.0
2018-Feb-17 01:00N 22°33' E 120°20'0 0.0
2018-Feb-17 00:30N 22°33' E 120°20'0 0.0
2018-Feb-17 00:00N 22°33' E 120°20'1 3.0
2018-Feb-16 23:30N 22°33' E 120°18'5 9.6
2018-Feb-16 23:00N 22°32' E 120°13'4 7.9
2018-Feb-16 22:31N 22°35' E 120°11'612.3
2018-Feb-16 22:01N 22°41' E 120°08'611.8
2018-Feb-16 21:31N 22°46' E 120°06'611.5
2018-Feb-16 21:01N 22°51' E 120°03'611.4
2018-Feb-16 20:31N 22°57' E 120°00'611.9
2018-Feb-16 19:59N 23°02' E 119°58'612.4
2018-Feb-16 19:29N 23°08' E 119°57'612.8
2018-Feb-16 18:59N 23°15' E 119°56'713.0
2018-Feb-16 18:29N 23°21' E 119°56'  
2018-Feb-14 04:44N 26°03' E 119°50'512.0
2018-Feb-14 04:21N 25°59' E 119°52'412.3
2018-Feb-14 03:59N 25°54' E 119°52'612.4
2018-Feb-14 03:30N 25°48' E 119°54'612.5
2018-Feb-14 03:00N 25°42' E 119°55'612.6
2018-Feb-14 02:30N 25°36' E 119°58'612.4
2018-Feb-14 02:00N 25°30' E 119°60'8412.6
2018-Feb-13 19:20N 24°07' E 119°56'511.9
2018-Feb-13 18:55N 24°02' E 119°56'511.5
2018-Feb-13 18:29N 23°57' E 119°56'611.5
2018-Feb-13 18:00N 23°51' E 119°55'1211.4
2018-Feb-13 17:00N 23°40' E 119°54'611.4
2018-Feb-13 16:26N 23°33' E 119°55'711.4
2018-Feb-13 15:49N 23°26' E 119°54'411.5
2018-Feb-13 15:30N 23°23' E 119°54'1412.4
2018-Feb-13 14:22N 23°09' E 119°57'513.5
2018-Feb-13 14:01N 23°04' E 119°58'713.5
2018-Feb-13 13:28N 22°57' E 120°02'613.8
2018-Feb-13 13:01N 22°52' E 120°04'713.5
2018-Feb-13 12:31N 22°45' E 120°07'612.9
2018-Feb-13 12:00N 22°40' E 120°10'612.6
2018-Feb-13 11:31N 22°34' E 120°13'510.1
2018-Feb-13 11:00N 22°33' E 120°18'1 2.6
2018-Feb-13 10:28N 22°33' E 120°20'0 0.0
2018-Feb-13 09:58N 22°33' E 120°20'0 0.0
2018-Feb-13 09:28N 22°33' E 120°20'0 0.0
2018-Feb-13 08:58N 22°33' E 120°20'0 0.0
2018-Feb-13 08:28N 22°33' E 120°20'0 0.0
2018-Feb-13 07:58N 22°33' E 120°20'0 0.0
2018-Feb-13 07:25N 22°33' E 120°20'0 0.0
2018-Feb-13 06:58N 22°33' E 120°20'0 0.0
2018-Feb-13 06:28N 22°33' E 120°20'0 0.0
2018-Feb-13 05:58N 22°33' E 120°20'0 0.0
2018-Feb-13 05:28N 22°33' E 120°20'0 0.0
2018-Feb-13 04:58N 22°33' E 120°20'0 0.0
2018-Feb-13 04:25N 22°33' E 120°20'0 0.0
2018-Feb-13 03:58N 22°33' E 120°20'0 0.0
2018-Feb-13 03:28N 22°33' E 120°20'0 0.0
2018-Feb-13 02:58N 22°33' E 120°20'0 0.0
2018-Feb-13 02:25N 22°33' E 120°20'0 0.2
2018-Feb-13 02:00N 22°33' E 120°20'3 5.8
2018-Feb-13 01:30N 22°33' E 120°17'2 3.9
2018-Feb-13 01:00N 22°32' E 120°15'3 5.8
2018-Feb-13 00:30N 22°29' E 120°13'0 0.7
2018-Feb-13 00:00N 22°30' E 120°13'0 0.6
2018-Feb-12 23:30N 22°30' E 120°13'0 0.5
2018-Feb-12 23:00N 22°30' E 120°13'5 9.5
2018-Feb-12 22:30N 22°35' E 120°12'611.3
2018-Feb-12 22:00N 22°40' E 120°09'510.6
2018-Feb-12 21:30N 22°45' E 120°07'5 9.8
2018-Feb-12 21:00N 22°49' E 120°05'510.7
2018-Feb-12 20:30N 22°54' E 120°03'611.6
2018-Feb-12 20:01N 22°60' E 120°00'611.6
2018-Feb-12 19:30N 23°05' E 119°57'712.2
2018-Feb-12 18:57N 23°12' E 119°57'1012.9
2018-Feb-12 18:08N 23°22' E 119°57'213.3
2018-Feb-12 17:58N 23°24' E 119°56'  
2018-Feb-10 05:04N 22°56' E 119°47'111.9
2018-Feb-10 04:57N 22°55' E 119°47'612.2
2018-Feb-10 04:29N 22°51' E 119°52'612.4
2018-Feb-10 04:01N 22°47' E 119°56'612.6
2018-Feb-10 03:31N 22°42' E 120°01'612.5
2018-Feb-10 03:00N 22°38' E 120°05'612.3
2018-Feb-10 02:31N 22°33' E 120°09'612.0
2018-Feb-10 02:00N 22°33' E 120°16'3 6.3
2018-Feb-10 01:29N 22°33' E 120°20'0 0.8
2018-Feb-10 01:00N 22°33' E 120°20'0 0.0
2018-Feb-10 00:30N 22°33' E 120°20'0 0.0
2018-Feb-10 00:00N 22°33' E 120°20'0 0.0
2018-Feb-09 23:30N 22°33' E 120°20'0 0.0
2018-Feb-09 23:00N 22°33' E 120°20'0 0.0
2018-Feb-09 22:45N 22°33' E 120°20'0 0.0
2018-Feb-09 15:00N 22°33' E 120°20'4 7.7
2018-Feb-09 14:30N 22°33' E 120°16'14 9.2
2018-Feb-09 13:00N 22°44' E 120°07'612.1
2018-Feb-09 12:31N 22°49' E 120°05'612.5
2018-Feb-09 12:00N 22°55' E 120°03'612.5
2018-Feb-09 11:30N 23°01' E 119°60'  
Track history (hours):
 
Tides and Currents Weather Stations Pressure Air Temp Water Temp Dewpoint Dewpoint Depression Visibility Wind Speed Wind Dir Waves Ship Positions

Nagaleader

Last reported at 2018-Feb-17 16:36 UTC. Time now 2018-Feb-19 22:02 UTC.
Position N 23°45' E 119°23'.

Length 113 m; draft 5.4 m.

Type: Cargo ship. MMSI: 477926700.

Date/timePositionNaut miles runAvg speedWind from/ knotsBaromVisibWave heightAir tempDewpointWater temp
2018-Feb-17 16:36N 23°45' E 119°23'1 9.2
2018-Feb-17 16:27N 23°43' E 119°24'6911.2
2018-Feb-17 10:17N 22°43' E 120°00'310.4
2018-Feb-17 09:59N 22°41' E 120°03'510.1
2018-Feb-17 09:30N 22°37' E 120°06'4 9.1
2018-Feb-17 09:00N 22°34' E 120°09'510.6
2018-Feb-17 08:30N 22°33' E 120°15'4 9.1
2018-Feb-17 08:00N 22°33' E 120°20'0 0.2
2018-Feb-17 07:30N 22°33' E 120°20'0 0.0
2018-Feb-17 07:00N 22°33' E 120°20'0 0.0
2018-Feb-17 06:30N 22°33' E 120°20'0 0.0
2018-Feb-17 06:00N 22°33' E 120°20'0 0.0
2018-Feb-17 05:30N 22°33' E 120°20'0 0.0
2018-Feb-17 05:00N 22°33' E 120°20'0 0.0
2018-Feb-17 04:30N 22°33' E 120°20'0 0.0
2018-Feb-17 04:00N 22°33' E 120°20'0 0.0
2018-Feb-17 03:30N 22°33' E 120°20'0 0.0
2018-Feb-17 03:00N 22°33' E 120°20'0 0.0
2018-Feb-17 02:30N 22°33' E 120°20'0 0.0
2018-Feb-17 02:00N 22°33' E 120°20'0 0.0
2018-Feb-17 01:27N 22°33' E 120°20'0 0.0
2018-Feb-17 01:00N 22°33' E 120°20'0 0.0
2018-Feb-17 00:30N 22°33' E 120°20'0 0.0
2018-Feb-17 00:00N 22°33' E 120°20'1 3.0
2018-Feb-16 23:30N 22°33' E 120°18'5 9.6
2018-Feb-16 23:00N 22°32' E 120°13'4 7.9
2018-Feb-16 22:31N 22°35' E 120°11'612.3
2018-Feb-16 22:01N 22°41' E 120°08'611.8
2018-Feb-16 21:31N 22°46' E 120°06'611.5
2018-Feb-16 21:01N 22°51' E 120°03'611.4
2018-Feb-16 20:31N 22°57' E 120°00'611.9
2018-Feb-16 19:59N 23°02' E 119°58'612.4
2018-Feb-16 19:29N 23°08' E 119°57'612.8
2018-Feb-16 18:59N 23°15' E 119°56'713.0
2018-Feb-16 18:29N 23°21' E 119°56'  
2018-Feb-14 04:44N 26°03' E 119°50'512.0
2018-Feb-14 04:21N 25°59' E 119°52'412.3
2018-Feb-14 03:59N 25°54' E 119°52'612.4
2018-Feb-14 03:30N 25°48' E 119°54'612.5
2018-Feb-14 03:00N 25°42' E 119°55'612.6
2018-Feb-14 02:30N 25°36' E 119°58'612.4
2018-Feb-14 02:00N 25°30' E 119°60'8412.6
2018-Feb-13 19:20N 24°07' E 119°56'511.9
2018-Feb-13 18:55N 24°02' E 119°56'511.5
2018-Feb-13 18:29N 23°57' E 119°56'611.5
2018-Feb-13 18:00N 23°51' E 119°55'1211.4
2018-Feb-13 17:00N 23°40' E 119°54'611.4
2018-Feb-13 16:26N 23°33' E 119°55'711.4
2018-Feb-13 15:49N 23°26' E 119°54'411.5
2018-Feb-13 15:30N 23°23' E 119°54'1412.4
2018-Feb-13 14:22N 23°09' E 119°57'513.5
2018-Feb-13 14:01N 23°04' E 119°58'713.5
2018-Feb-13 13:28N 22°57' E 120°02'613.8
2018-Feb-13 13:01N 22°52' E 120°04'713.5
2018-Feb-13 12:31N 22°45' E 120°07'612.9
2018-Feb-13 12:00N 22°40' E 120°10'612.6
2018-Feb-13 11:31N 22°34' E 120°13'510.1
2018-Feb-13 11:00N 22°33' E 120°18'1 2.6
2018-Feb-13 10:28N 22°33' E 120°20'0 0.0
2018-Feb-13 09:58N 22°33' E 120°20'0 0.0
2018-Feb-13 09:28N 22°33' E 120°20'0 0.0
2018-Feb-13 08:58N 22°33' E 120°20'0 0.0
2018-Feb-13 08:28N 22°33' E 120°20'0 0.0
2018-Feb-13 07:58N 22°33' E 120°20'0 0.0
2018-Feb-13 07:25N 22°33' E 120°20'0 0.0
2018-Feb-13 06:58N 22°33' E 120°20'0 0.0
2018-Feb-13 06:28N 22°33' E 120°20'0 0.0
2018-Feb-13 05:58N 22°33' E 120°20'0 0.0
2018-Feb-13 05:28N 22°33' E 120°20'0 0.0
2018-Feb-13 04:58N 22°33' E 120°20'0 0.0
2018-Feb-13 04:25N 22°33' E 120°20'0 0.0
2018-Feb-13 03:58N 22°33' E 120°20'0 0.0
2018-Feb-13 03:28N 22°33' E 120°20'0 0.0
2018-Feb-13 02:58N 22°33' E 120°20'0 0.0
2018-Feb-13 02:25N 22°33' E 120°20'0 0.2
2018-Feb-13 02:00N 22°33' E 120°20'3 5.8
2018-Feb-13 01:30N 22°33' E 120°17'2 3.9
2018-Feb-13 01:00N 22°32' E 120°15'3 5.8
2018-Feb-13 00:30N 22°29' E 120°13'0 0.7
2018-Feb-13 00:00N 22°30' E 120°13'0 0.6
2018-Feb-12 23:30N 22°30' E 120°13'0 0.5
2018-Feb-12 23:00N 22°30' E 120°13'5 9.5
2018-Feb-12 22:30N 22°35' E 120°12'611.3
2018-Feb-12 22:00N 22°40' E 120°09'510.6
2018-Feb-12 21:30N 22°45' E 120°07'5 9.8
2018-Feb-12 21:00N 22°49' E 120°05'510.7
2018-Feb-12 20:30N 22°54' E 120°03'611.6
2018-Feb-12 20:01N 22°60' E 120°00'611.6
2018-Feb-12 19:30N 23°05' E 119°57'712.2
2018-Feb-12 18:57N 23°12' E 119°57'1012.9
2018-Feb-12 18:08N 23°22' E 119°57'213.3
2018-Feb-12 17:58N 23°24' E 119°56'  
2018-Feb-10 05:04N 22°56' E 119°47'111.9
2018-Feb-10 04:57N 22°55' E 119°47'612.2
2018-Feb-10 04:29N 22°51' E 119°52'612.4
2018-Feb-10 04:01N 22°47' E 119°56'612.6
2018-Feb-10 03:31N 22°42' E 120°01'612.5
2018-Feb-10 03:00N 22°38' E 120°05'612.3
2018-Feb-10 02:31N 22°33' E 120°09'612.0
2018-Feb-10 02:00N 22°33' E 120°16'3 6.3
2018-Feb-10 01:29N 22°33' E 120°20'0 0.8
2018-Feb-10 01:00N 22°33' E 120°20'0 0.0
2018-Feb-10 00:30N 22°33' E 120°20'0 0.0
2018-Feb-10 00:00N 22°33' E 120°20'0 0.0
2018-Feb-09 23:30N 22°33' E 120°20'0 0.0
2018-Feb-09 23:00N 22°33' E 120°20'0 0.0
2018-Feb-09 22:45N 22°33' E 120°20'0 0.0
2018-Feb-09 15:00N 22°33' E 120°20'4 7.7
2018-Feb-09 14:30N 22°33' E 120°16'14 9.2
2018-Feb-09 13:00N 22°44' E 120°07'612.1
2018-Feb-09 12:31N 22°49' E 120°05'612.5
2018-Feb-09 12:00N 22°55' E 120°03'612.5
2018-Feb-09 11:30N 23°01' E 119°60'  

Dump ship's entire track history